Time;durP1;ratioP1;P1;durP2;ratioP2;P2;SDS_P1;SDS_P2;PMS_P1;PMS_P2;Temp;Humidity;BMP_temperature;BMP_pressure;BME280_temperature;BME280_humidity;BME280_pressure;Samples;Min_cycle;Max_cycle;Signal;HPM_P1;HPM_P2
2021/12/19 00:01:19;;;;;;;8.25;5.88;;;8.00;99.90;;;;;;5095090;28;20032;-50
2021/12/19 00:08:58;;;;;;;10.02;6.47;;;8.10;99.90;;;;;;5095438;28;20346;-46
2021/12/19 00:11:26;;;;;;;11.85;6.18;;;8.10;99.90;;;;;;5110640;28;20127;-49
2021/12/19 00:13:52;;;;;;;13.02;7.55;;;8.10;99.90;;;;;;5094821;28;20478;-47
2021/12/19 00:16:19;;;;;;;14.70;7.53;;;8.10;99.90;;;;;;5094651;28;20398;-48
2021/12/19 00:18:47;;;;;;;14.50;8.18;;;8.20;99.90;;;;;;5095139;28;20040;-48
2021/12/19 00:21:15;;;;;;;14.07;7.90;;;8.20;99.90;;;;;;5094982;28;20110;-48
2021/12/19 00:23:41;;;;;;;18.70;7.50;;;8.10;99.90;;;;;;5094836;28;20382;-46
2021/12/19 00:26:08;;;;;;;11.95;6.43;;;8.10;99.90;;;;;;5094825;28;20047;-50
2021/12/19 00:28:34;;;;;;;12.40;6.75;;;8.20;99.90;;;;;;5094705;28;20075;-48
2021/12/19 00:31:00;;;;;;;12.30;6.22;;;8.20;99.90;;;;;;5094332;28;20397;-46
2021/12/19 00:33:26;;;;;;;8.05;4.68;;;8.20;99.90;;;;;;5094502;28;20047;-48
2021/12/19 00:35:52;;;;;;;11.45;4.70;;;8.10;99.90;;;;;;5094779;28;20036;-46
2021/12/19 00:38:18;;;;;;;7.47;3.67;;;8.10;99.90;;;;;;5093548;28;20054;-49
2021/12/19 00:40:43;;;;;;;6.47;2.65;;;8.00;99.90;;;;;;5094331;28;20036;-49
2021/12/19 00:43:21;;;;;;;3.20;2.20;;;8.10;99.90;;;;;;5094351;28;20544;-48
2021/12/19 00:45:49;;;;;;;5.85;2.35;;;8.10;99.90;;;;;;5094593;28;20040;-46
2021/12/19 00:48:16;;;;;;;6.15;2.30;;;8.10;99.90;;;;;;5092740;28;20067;-47
2021/12/19 00:50:41;;;;;;;4.35;2.10;;;8.00;99.90;;;;;;5094347;28;20047;-46
2021/12/19 00:53:08;;;;;;;6.82;2.35;;;8.00;99.90;;;;;;5094473;28;20087;-50
2021/12/19 00:55:34;;;;;;;4.13;1.45;;;8.00;99.90;;;;;;5094158;28;20075;-45
2021/12/19 00:58:00;;;;;;;3.60;1.15;;;8.00;99.90;;;;;;5094220;28;20065;-48
2021/12/19 01:00:30;;;;;;;3.15;1.50;;;7.90;99.90;;;;;;5094244;28;20458;-45
2021/12/19 01:02:58;;;;;;;5.40;1.60;;;7.90;99.90;;;;;;5093932;28;20040;-46
2021/12/19 01:05:29;;;;;;;4.38;1.63;;;7.90;99.90;;;;;;5094163;28;20078;-48
2021/12/19 01:07:55;;;;;;;1.75;1.00;;;7.80;99.90;;;;;;5094125;28;20040;-48
2021/12/19 01:10:20;;;;;;;3.40;1.10;;;7.90;99.90;;;;;;5093976;28;20043;-48
2021/12/19 01:12:46;;;;;;;4.50;1.88;;;7.80;99.90;;;;;;5093879;28;20044;-47
2021/12/19 01:15:14;;;;;;;3.25;1.52;;;7.80;99.90;;;;;;5093672;28;20051;-47
2021/12/19 01:17:40;;;;;;;3.55;1.35;;;7.80;99.90;;;;;;5093436;28;20063;-46
2021/12/19 01:20:13;;;;;;;3.55;1.20;;;7.70;99.90;;;;;;5093313;28;20048;-59
2021/12/19 01:22:39;;;;;;;5.22;1.35;;;7.70;99.90;;;;;;5092101;28;20063;-59
2021/12/19 01:25:05;;;;;;;3.30;1.38;;;7.70;99.90;;;;;;5093188;28;20474;-59
2021/12/19 01:27:30;;;;;;;5.15;1.70;;;7.60;99.90;;;;;;5092318;28;20047;-59
2021/12/19 01:29:56;;;;;;;6.07;2.38;;;7.70;99.90;;;;;;5093241;28;20151;-58
2021/12/19 01:32:22;;;;;;;5.43;2.75;;;7.70;99.90;;;;;;5093043;28;20090;-59
2021/12/19 01:34:48;;;;;;;5.13;1.75;;;7.70;99.90;;;;;;5093086;28;20079;-59
2021/12/19 01:37:13;;;;;;;2.42;1.08;;;7.70;99.90;;;;;;5093068;28;20115;-59
2021/12/19 01:39:39;;;;;;;3.40;1.60;;;7.80;99.90;;;;;;5092893;28;20036;-59
2021/12/19 01:42:10;;;;;;;3.65;1.25;;;7.70;99.90;;;;;;5093040;28;20047;-59
2021/12/19 01:44:36;;;;;;;5.47;1.60;;;7.80;99.90;;;;;;5092972;28;20081;-59
2021/12/19 01:47:04;;;;;;;4.70;1.10;;;7.80;99.90;;;;;;5092930;28;20388;-59
2021/12/19 01:49:30;;;;;;;3.78;1.30;;;7.80;99.90;;;;;;5092710;28;20036;-59
2021/12/19 01:51:56;;;;;;;2.92;1.40;;;7.80;99.90;;;;;;5092688;28;20482;-59
2021/12/19 01:54:21;;;;;;;1.02;0.70;;;7.80;99.90;;;;;;5092632;28;20083;-60
2021/12/19 01:56:47;;;;;;;1.98;1.00;;;7.80;99.90;;;;;;5092491;28;20394;-58
2021/12/19 01:59:13;;;;;;;3.47;1.40;;;7.90;99.90;;;;;;5092385;28;20063;-59
2021/12/19 02:01:45;;;;;;;2.78;0.90;;;7.80;99.90;;;;;;5092224;28;20123;-59
2021/12/19 02:04:13;;;;;;;1.83;0.98;;;7.80;99.90;;;;;;5092628;28;20153;-59
2021/12/19 02:06:40;;;;;;;1.25;1.00;;;7.90;99.90;;;;;;5092482;28;20051;-59
2021/12/19 02:09:06;;;;;;;3.30;1.50;;;7.90;99.90;;;;;;5092423;28;20474;-59
2021/12/19 02:11:36;;;;;;;4.72;1.48;;;7.80;99.90;;;;;;5092234;28;20052;-59
2021/12/19 02:14:04;;;;;;;9.15;2.75;;;7.80;99.90;;;;;;5092654;28;20047;-59
2021/12/19 02:16:30;;;;;;;4.68;1.77;;;7.80;99.90;;;;;;5092623;28;20152;-58
2021/12/19 02:18:57;;;;;;;5.32;1.80;;;7.70;99.90;;;;;;5092377;28;20611;-59
2021/12/19 02:21:23;;;;;;;5.53;1.60;;;7.80;99.90;;;;;;5092168;28;20115;-58
2021/12/19 02:23:48;;;;;;;5.18;2.00;;;7.70;99.90;;;;;;5091328;28;20115;-59
2021/12/19 02:26:15;;;;;;;3.92;1.55;;;7.70;99.90;;;;;;5092395;28;20036;-58
2021/12/19 02:28:40;;;;;;;3.47;1.35;;;7.70;99.90;;;;;;5092467;28;20053;-59
2021/12/19 02:31:07;;;;;;;3.42;0.90;;;7.70;99.90;;;;;;5092179;28;20115;-59
2021/12/19 02:33:38;;;;;;;3.92;1.42;;;7.60;99.90;;;;;;5092060;28;20169;-59
2021/12/19 02:36:20;;;;;;;4.50;1.95;;;7.70;99.90;;;;;;5092137;28;20036;-59
2021/12/19 02:50:12;;;;;;;3.50;1.60;;;7.50;99.90;;;;;;5069610;28;20071;-59
2021/12/19 02:52:38;;;;;;;;;;;7.50;99.90;;;;;;5070022;28;20055;-59
2021/12/19 02:55:05;;;;;;;8.63;2.20;;;7.40;99.90;;;;;;5069594;28;19916;-58
2021/12/19 02:57:31;;;;;;;6.00;2.00;;;7.40;99.90;;;;;;5069578;28;20049;-58
2021/12/19 02:59:57;;;;;;;6.25;2.08;;;7.40;99.90;;;;;;5069507;28;20162;-58
2021/12/19 03:02:23;;;;;;;3.83;2.03;;;7.40;99.90;;;;;;5069504;28;20037;-59
2021/12/19 03:04:57;;;;;;;3.03;1.85;;;7.40;99.90;;;;;;5069607;28;20494;-58
2021/12/19 03:07:24;;;;;;;6.15;2.83;;;7.40;99.90;;;;;;5069418;28;20045;-59
2021/12/19 03:12:46;;;;;;;7.72;1.52;;;7.40;99.90;;;;;;5072310;28;20114;-58
2021/12/19 03:18:05;;;;;;;4.28;0.82;;;7.30;99.90;;;;;;5083326;28;20052;-59
2021/12/19 03:20:32;;;;;;;3.22;0.77;;;7.20;99.90;;;;;;5095635;28;20040;-58
2021/12/19 03:22:59;;;;;;;4.78;0.82;;;7.20;99.90;;;;;;5095425;28;20032;-59
2021/12/19 03:25:26;;;;;;;2.40;0.85;;;7.20;99.90;;;;;;5095521;28;20028;-58
2021/12/19 03:27:52;;;;;;;4.00;1.95;;;7.20;99.90;;;;;;5095300;28;20043;-58
2021/12/19 03:30:19;;;;;;;4.03;2.08;;;7.20;99.90;;;;;;5095604;28;20043;-58
2021/12/19 03:32:44;;;;;;;5.88;2.28;;;7.30;99.90;;;;;;5095540;28;20115;-58
2021/12/19 03:35:11;;;;;;;7.15;2.53;;;7.30;99.90;;;;;;5095221;28;20525;-58
2021/12/19 03:37:36;;;;;;;10.23;2.60;;;7.30;99.90;;;;;;5095309;28;20132;-58
2021/12/19 03:40:12;;;;;;;6.20;2.78;;;7.30;99.90;;;;;;5095190;28;20071;-59
2021/12/19 03:42:47;;;;;;;4.97;2.10;;;7.20;99.90;;;;;;5095070;28;20182;-59
2021/12/19 03:45:17;;;;;;;6.30;2.33;;;7.20;99.90;;;;;;5095250;28;20043;-58
2021/12/19 03:47:43;;;;;;;7.43;2.38;;;7.20;99.90;;;;;;5095264;28;20050;-59
2021/12/19 03:50:11;;;;;;;7.72;2.00;;;7.20;99.90;;;;;;5095194;28;20113;-58
2021/12/19 03:52:37;;;;;;;7.47;1.67;;;7.20;99.90;;;;;;5095086;28;20397;-59
2021/12/19 03:55:04;;;;;;;4.32;1.63;;;7.20;99.90;;;;;;5093725;28;20039;-58
2021/12/19 03:57:30;;;;;;;7.78;2.40;;;7.20;99.90;;;;;;5095066;28;20043;-58
2021/12/19 03:59:55;;;;;;;6.05;2.05;;;7.30;99.90;;;;;;5095076;28;20401;-59
2021/12/19 04:02:26;;;;;;;5.97;2.20;;;7.30;99.90;;;;;;5094950;28;20044;-58
2021/12/19 04:04:54;;;;;;;8.80;2.40;;;7.40;99.90;;;;;;5094861;28;20047;-58
2021/12/19 04:07:21;;;;;;;4.90;2.53;;;7.40;99.90;;;;;;5094773;28;20119;-58
2021/12/19 04:09:47;;;;;;;7.72;2.35;;;7.40;99.90;;;;;;5094522;28;20054;-58
2021/12/19 04:12:13;;;;;;;6.78;2.38;;;7.30;99.90;;;;;;5094733;28;20036;-58
2021/12/19 04:14:39;;;;;;;6.50;2.60;;;7.40;99.90;;;;;;5094587;28;20474;-59
2021/12/19 04:17:04;;;;;;;6.18;2.50;;;7.40;99.90;;;;;;5094383;28;20490;-58
2021/12/19 04:19:30;;;;;;;11.02;4.20;;;7.40;99.90;;;;;;5094520;28;20054;-59
2021/12/19 04:21:57;;;;;;;14.73;3.80;;;7.40;99.90;;;;;;5094421;28;20381;-58
2021/12/19 04:24:22;;;;;;;11.23;3.80;;;7.40;99.90;;;;;;5093823;28;20032;-59
2021/12/19 04:26:48;;;;;;;20.50;3.58;;;7.40;99.90;;;;;;5094390;28;20389;-59
2021/12/19 04:29:14;;;;;;;11.10;3.75;;;7.30;99.90;;;;;;5094471;28;20040;-59
2021/12/19 04:31:40;;;;;;;12.95;3.03;;;7.40;99.90;;;;;;5094204;28;20470;-59
2021/12/19 04:34:06;;;;;;;19.42;4.22;;;7.30;99.90;;;;;;5094281;28;20055;-59
2021/12/19 04:36:37;;;;;;;13.32;3.30;;;7.30;99.90;;;;;;5094080;28;20485;-59
2021/12/19 04:57:51;;;;;;;21.95;5.18;;;7.50;99.90;;;;;;5071318;28;20507;-59
2021/12/19 05:00:21;;;;;;;;;;;7.50;99.90;;;;;;5071853;28;20060;-59
2021/12/19 05:02:59;;;;;;;18.73;5.35;;;7.50;99.90;;;;;;5071182;28;19943;-58
2021/12/19 05:16:21;;;;;;;15.63;6.30;;;7.50;99.90;;;;;;5070806;28;20052;-58
2021/12/19 05:18:49;;;;;;;17.77;7.72;;;7.50;99.90;;;;;;5070917;28;20041;-58
2021/12/19 05:21:19;;;;;;;17.75;7.20;;;7.50;99.90;;;;;;5070787;28;20063;-58
2021/12/19 05:26:10;;;;;;;15.48;7.00;;;7.50;99.90;;;;;;5067376;28;20043;-59
2021/12/19 05:28:36;;;;;;;17.73;8.25;;;7.50;99.90;;;;;;5093107;28;20036;-59
2021/12/19 05:31:02;;;;;;;20.42;7.95;;;7.50;99.90;;;;;;5093366;28;20032;-59
2021/12/19 05:33:28;;;;;;;14.43;7.22;;;7.50;99.90;;;;;;5093203;28;20044;-58
2021/12/19 05:46:34;;;;;;;18.77;8.50;;;7.50;99.90;;;;;;5092814;28;20382;-58
2021/12/19 05:49:01;;;;;;;23.05;8.98;;;7.50;99.90;;;;;;5092848;28;20051;-58
2021/12/19 05:51:27;;;;;;;20.55;8.55;;;7.50;99.90;;;;;;5092722;28;20083;-59
2021/12/19 05:53:53;;;;;;;27.50;8.48;;;7.50;99.90;;;;;;5092694;28;20474;-58
2021/12/19 05:56:19;;;;;;;26.17;9.18;;;7.50;99.90;;;;;;5093145;28;20042;-58
2021/12/19 05:58:44;;;;;;;21.13;7.85;;;7.50;99.90;;;;;;5092739;28;20032;-58
2021/12/19 06:01:10;;;;;;;26.45;7.72;;;7.50;99.90;;;;;;5092624;28;20040;-59
2021/12/19 06:03:36;;;;;;;23.85;8.73;;;7.50;99.90;;;;;;5092597;28;20032;-59
2021/12/19 06:06:02;;;;;;;27.73;8.98;;;7.50;99.90;;;;;;5092612;28;20127;-58
2021/12/19 06:08:28;;;;;;;16.77;6.50;;;7.50;99.90;;;;;;5092403;28;20111;-59
2021/12/19 06:10:53;;;;;;;21.23;6.85;;;7.50;99.90;;;;;;5092704;28;20401;-58
2021/12/19 06:13:19;;;;;;;14.13;5.45;;;7.50;99.90;;;;;;5092356;28;20036;-59
2021/12/19 06:15:45;;;;;;;20.08;6.38;;;7.50;99.90;;;;;;5092247;28;20035;-58
2021/12/19 06:18:11;;;;;;;24.30;6.53;;;7.50;99.90;;;;;;5092384;28;20047;-58
2021/12/19 06:20:36;;;;;;;18.33;7.38;;;7.50;99.90;;;;;;5092131;28;20051;-59
2021/12/19 06:23:02;;;;;;;19.35;6.38;;;7.50;99.90;;;;;;5092139;28;20044;-58
2021/12/19 06:25:28;;;;;;;17.70;6.38;;;7.50;99.90;;;;;;5092419;28;20047;-58
2021/12/19 06:27:54;;;;;;;21.80;6.75;;;7.60;99.90;;;;;;5092236;28;20039;-59
2021/12/19 06:30:20;;;;;;;24.42;7.45;;;7.60;99.90;;;;;;5092213;28;20075;-58
2021/12/19 06:32:45;;;;;;;16.27;6.03;;;7.60;99.90;;;;;;5092143;28;20070;-58
2021/12/19 06:35:18;;;;;;;26.42;6.05;;;7.50;99.90;;;;;;5092155;28;20093;-58
2021/12/19 06:37:46;;;;;;;21.35;5.85;;;7.50;99.90;;;;;;5092008;28;20071;-58
2021/12/19 06:40:14;;;;;;;12.13;5.30;;;7.50;99.90;;;;;;5092170;28;20252;-58
2021/12/19 06:42:40;;;;;;;14.23;5.82;;;7.50;99.90;;;;;;5092108;28;20052;-58
2021/12/19 06:45:07;;;;;;;19.13;5.25;;;7.60;99.90;;;;;;5092173;28;20158;-58
2021/12/19 06:47:32;;;;;;;17.88;4.78;;;7.50;99.90;;;;;;5098096;28;20040;-59
2021/12/19 06:49:58;;;;;;;16.08;4.68;;;7.50;99.90;;;;;;5098714;28;20040;-58
2021/12/19 06:52:24;;;;;;;15.85;5.15;;;7.50;99.90;;;;;;5098832;28;20044;-58
2021/12/19 06:54:49;;;;;;;13.88;4.20;;;7.50;99.90;;;;;;5098926;28;20218;-58
2021/12/19 06:57:15;;;;;;;10.75;3.00;;;7.50;99.90;;;;;;5098800;28;20122;-58
2021/12/19 06:59:41;;;;;;;9.68;2.88;;;7.50;99.90;;;;;;5098718;28;20076;-59
2021/12/19 07:02:06;;;;;;;16.50;3.58;;;7.50;99.90;;;;;;5098872;28;20040;-58
2021/12/19 07:04:32;;;;;;;15.55;4.65;;;7.50;99.90;;;;;;5098500;28;20043;-58
2021/12/19 07:06:58;;;;;;;15.85;4.15;;;7.50;99.90;;;;;;5098476;28;20422;-59
2021/12/19 07:09:23;;;;;;;11.68;3.63;;;7.60;99.90;;;;;;5098689;28;20054;-59
2021/12/19 07:11:49;;;;;;;15.95;4.53;;;7.60;99.90;;;;;;5098603;28;20036;-58
2021/12/19 07:14:15;;;;;;;24.45;4.93;;;7.70;99.90;;;;;;5098555;28;20036;-58
2021/12/19 07:16:40;;;;;;;17.75;4.82;;;7.60;99.90;;;;;;5098344;28;20086;-58
2021/12/19 07:19:06;;;;;;;16.67;4.25;;;7.60;99.90;;;;;;5098337;28;20043;-58
2021/12/19 07:21:31;;;;;;;13.63;3.88;;;7.70;99.90;;;;;;5098213;28;20036;-59
2021/12/19 07:23:57;;;;;;;25.10;5.03;;;7.60;99.90;;;;;;5098473;28;20040;-59
2021/12/19 07:26:23;;;;;;;10.82;3.80;;;7.60;99.90;;;;;;5098360;28;20040;-59
2021/12/19 07:28:50;;;;;;;14.75;3.47;;;7.60;99.90;;;;;;5098410;28;20111;-58
2021/12/19 07:31:21;;;;;;;17.92;4.32;;;7.60;99.90;;;;;;5098558;28;20036;-58
2021/12/19 07:33:46;;;;;;;18.77;3.33;;;7.60;99.90;;;;;;5098210;28;20044;-59
2021/12/19 07:36:13;;;;;;;14.00;3.65;;;7.60;99.90;;;;;;5098305;28;20374;-58
2021/12/19 07:38:52;;;;;;;12.95;3.13;;;7.60;99.90;;;;;;5097002;28;20504;-59
2021/12/19 07:41:18;;;;;;;13.10;3.20;;;7.60;99.90;;;;;;5098683;28;20890;-59
2021/12/19 07:43:43;;;;;;;10.85;3.28;;;7.60;99.90;;;;;;5098174;28;20043;-59
2021/12/19 07:46:09;;;;;;;14.85;3.63;;;7.60;99.90;;;;;;5098050;28;20394;-59
2021/12/19 07:48:35;;;;;;;15.75;3.40;;;7.70;99.90;;;;;;5098076;28;20047;-59
2021/12/19 07:51:00;;;;;;;12.00;3.45;;;7.70;99.90;;;;;;5097985;28;20031;-59
2021/12/19 07:53:26;;;;;;;10.70;3.45;;;7.70;99.90;;;;;;5113922;28;20048;-58
2021/12/19 07:55:52;;;;;;;11.60;3.08;;;7.70;99.90;;;;;;5098150;28;20055;-59
2021/12/19 07:58:17;;;;;;;17.40;4.07;;;7.60;99.90;;;;;;5095230;28;20046;-59
2021/12/19 08:00:43;;;;;;;18.85;4.32;;;7.60;99.90;;;;;;5094695;28;20113;-59
2021/12/19 08:03:09;;;;;;;17.33;4.40;;;7.60;99.90;;;;;;5094734;28;20040;-59
2021/12/19 08:05:34;;;;;;;16.58;3.67;;;7.70;99.90;;;;;;5094983;28;20032;-59
2021/12/19 08:08:03;;;;;;;18.38;4.20;;;7.70;99.90;;;;;;5095011;28;20107;-58
2021/12/19 08:12:58;;;;;;;19.58;4.15;;;7.70;99.90;;;;;;5094616;28;20370;-58
2021/12/19 08:15:23;;;;;;;22.55;4.13;;;7.60;99.90;;;;;;5094474;28;20046;-58
2021/12/19 08:17:49;;;;;;;19.38;3.85;;;7.60;99.90;;;;;;5094370;28;20048;-58
2021/12/19 08:20:17;;;;;;;14.32;4.15;;;7.60;99.90;;;;;;5094762;28;20477;-58
2021/12/19 08:22:43;;;;;;;14.40;3.63;;;7.60;99.90;;;;;;5094537;28;20107;-58
2021/12/19 08:25:09;;;;;;;20.17;4.05;;;7.60;99.90;;;;;;5094556;28;20115;-58
2021/12/19 08:27:37;;;;;;;15.63;3.63;;;7.60;99.90;;;;;;5094316;28;20103;-58
2021/12/19 08:30:05;;;;;;;18.25;4.43;;;7.60;99.90;;;;;;5094183;28;20183;-58
2021/12/19 08:32:31;;;;;;;16.48;3.70;;;7.60;99.90;;;;;;5094158;28;20601;-58
2021/12/19 08:34:57;;;;;;;14.90;3.70;;;7.60;99.90;;;;;;5094461;28;20123;-58
2021/12/19 08:37:22;;;;;;;10.52;3.28;;;7.60;99.90;;;;;;5094073;28;20040;-58
2021/12/19 08:39:48;;;;;;;12.38;3.40;;;7.60;99.90;;;;;;5094322;28;20040;-58
2021/12/19 08:42:15;;;;;;;14.82;3.85;;;7.60;99.90;;;;;;5093994;28;20074;-58
2021/12/19 08:44:41;;;;;;;22.85;3.80;;;7.60;99.90;;;;;;5093988;28;20123;-58
2021/12/19 08:47:07;;;;;;;17.80;4.32;;;7.60;99.90;;;;;;5094368;28;20123;-58
2021/12/19 08:49:34;;;;;;;13.60;3.85;;;7.70;99.90;;;;;;5094397;28;20822;-58
2021/12/19 08:52:00;;;;;;;13.80;4.22;;;7.70;99.90;;;;;;5094369;28;20084;-58
2021/12/19 08:54:26;;;;;;;22.70;4.72;;;7.70;99.90;;;;;;5093147;28;20052;-58
2021/12/19 08:56:52;;;;;;;17.60;5.07;;;7.70;99.90;;;;;;5093883;28;20430;-58
2021/12/19 08:59:17;;;;;;;22.17;4.38;;;7.70;99.90;;;;;;5093702;28;20164;-58
2021/12/19 09:01:43;;;;;;;17.77;4.03;;;7.70;99.90;;;;;;5093830;28;20040;-58
2021/12/19 09:04:09;;;;;;;11.70;3.67;;;7.70;99.90;;;;;;5093958;28;20039;-58
2021/12/19 09:06:35;;;;;;;16.88;4.18;;;7.70;99.90;;;;;;5093788;28;20070;-58
2021/12/19 09:09:03;;;;;;;17.92;3.80;;;7.70;99.90;;;;;;5093507;28;20032;-58
2021/12/19 09:11:29;;;;;;;16.27;3.78;;;7.80;99.90;;;;;;5093518;28;20127;-58
2021/12/19 09:13:54;;;;;;;21.15;3.72;;;7.80;99.90;;;;;;5093273;28;20522;-58
2021/12/19 09:16:20;;;;;;;12.85;3.15;;;7.80;99.90;;;;;;5093207;28;20091;-58
2021/12/19 09:18:46;;;;;;;16.48;4.38;;;7.80;99.90;;;;;;5093306;28;20466;-58
2021/12/19 09:21:12;;;;;;;13.65;3.10;;;7.90;99.90;;;;;;5093228;28;20055;-58
2021/12/19 09:23:38;;;;;;;15.27;3.10;;;7.80;99.90;;;;;;5093286;28;20032;-58
2021/12/19 09:26:05;;;;;;;15.57;3.60;;;7.80;99.90;;;;;;5093082;28;20115;-58
2021/12/19 09:28:31;;;;;;;17.52;4.43;;;7.80;99.90;;;;;;5093193;28;20040;-58
2021/12/19 09:30:56;;;;;;;16.48;3.90;;;7.80;99.90;;;;;;5093421;28;20036;-58
2021/12/19 09:33:22;;;;;;;22.20;3.67;;;7.80;99.90;;;;;;5093295;28;20501;-58
2021/12/19 09:35:48;;;;;;;22.42;3.58;;;7.80;99.90;;;;;;5093047;28;20482;-58
2021/12/19 09:38:14;;;;;;;15.68;4.07;;;7.80;99.90;;;;;;5093103;28;20073;-58
2021/12/19 09:40:42;;;;;;;14.45;3.40;;;7.80;99.90;;;;;;5092916;28;20094;-58
2021/12/19 09:43:31;;;;;;;17.05;3.30;;;7.80;99.90;;;;;;5106709;28;20043;-58
2021/12/19 09:45:59;;;;;;;17.65;4.28;;;7.90;99.90;;;;;;5091992;28;20048;-58
2021/12/19 09:48:28;;;;;;;16.13;4.20;;;7.80;99.90;;;;;;5092559;28;20032;-58
2021/12/19 09:50:54;;;;;;;20.80;4.43;;;7.90;99.90;;;;;;5092182;28;20032;-58
2021/12/19 09:53:20;;;;;;;14.65;3.92;;;7.90;99.90;;;;;;5092347;28;20036;-58
2021/12/19 09:55:45;;;;;;;20.58;3.90;;;7.90;99.90;;;;;;5092661;28;20043;-58
2021/12/19 09:58:11;;;;;;;18.17;3.65;;;7.90;99.90;;;;;;5092307;28;20118;-60
2021/12/19 10:00:37;;;;;;;18.88;4.22;;;8.00;99.90;;;;;;5092565;28;20494;-60
2021/12/19 10:03:03;;;;;;;14.20;3.20;;;8.00;99.90;;;;;;5092515;28;20129;-60
2021/12/19 10:05:29;;;;;;;13.57;4.03;;;8.00;99.90;;;;;;5091101;28;20046;-60
2021/12/19 10:07:57;;;;;;;13.75;2.97;;;8.00;99.90;;;;;;5092078;28;20036;-61
2021/12/19 10:13:36;;;;;;;20.58;4.55;;;8.00;99.90;;;;;;5069863;28;20395;-60
2021/12/19 10:16:29;;;;;;;20.10;3.35;;;8.00;99.90;;;;;;5069430;28;20494;-60
2021/12/19 10:18:59;;;;;;;18.25;3.53;;;8.00;99.90;;;;;;5069698;28;20040;-60
2021/12/19 10:21:25;;;;;;;19.23;3.90;;;8.00;99.90;;;;;;5069173;28;20055;-60
2021/12/19 10:23:51;;;;;;;16.55;2.97;;;8.00;99.90;;;;;;5069479;28;20080;-60
2021/12/19 10:26:17;;;;;;;23.45;3.33;;;8.00;99.90;;;;;;5069436;28;20064;-60
2021/12/19 10:28:57;;;;;;;18.23;3.90;;;8.00;99.90;;;;;;5069450;28;20616;-60
2021/12/19 10:31:25;;;;;;;17.10;3.42;;;8.00;99.90;;;;;;5052707;28;20052;-60
2021/12/19 10:33:51;;;;;;;18.27;2.90;;;8.00;99.90;;;;;;5069957;28;20601;-59
2021/12/19 10:36:18;;;;;;;21.33;4.00;;;8.00;99.90;;;;;;5069517;28;20552;-60
2021/12/19 10:38:47;;;;;;;12.50;3.13;;;8.00;99.90;;;;;;5069404;28;20040;-60
2021/12/19 10:41:33;;;;;;;16.30;2.78;;;8.00;99.90;;;;;;5069593;28;20067;-60
2021/12/19 10:44:06;;;;;;;13.60;2.70;;;8.10;99.90;;;;;;5069360;28;20509;-60
2021/12/19 10:46:37;;;;;;;16.98;3.35;;;8.10;99.90;;;;;;5069355;28;20119;-60
2021/12/19 10:49:04;;;;;;;14.48;3.03;;;8.10;99.90;;;;;;5072386;28;20052;-60
2021/12/19 10:51:32;;;;;;;14.77;3.35;;;8.20;99.90;;;;;;5091449;28;20082;-60
2021/12/19 10:54:03;;;;;;;14.32;2.67;;;8.10;99.90;;;;;;5091752;28;20040;-60
2021/12/19 10:56:31;;;;;;;13.68;3.05;;;8.10;99.90;;;;;;5092098;28;20386;-60
2021/12/19 10:59:09;;;;;;;19.10;3.08;;;8.20;99.90;;;;;;5092081;28;20047;-60
2021/12/19 11:01:36;;;;;;;15.18;3.40;;;8.10;99.90;;;;;;5091634;28;20128;-60
2021/12/19 11:04:02;;;;;;;15.98;3.03;;;8.10;99.90;;;;;;5091818;28;20098;-61
2021/12/19 11:06:39;;;;;;;18.48;3.58;;;8.10;99.90;;;;;;5091925;28;20496;-60
2021/12/19 11:09:17;;;;;;;16.77;3.10;;;8.20;99.90;;;;;;5091821;28;20382;-60
2021/12/19 11:11:57;;;;;;;14.55;2.42;;;8.20;99.90;;;;;;5091945;28;20040;-60
2021/12/19 11:14:32;;;;;;;17.33;3.35;;;8.20;99.90;;;;;;5091748;28;20036;-60
2021/12/19 11:17:02;;;;;;;13.13;2.97;;;8.20;99.90;;;;;;5091709;28;20092;-60
2021/12/19 11:19:29;;;;;;;18.17;3.90;;;8.20;99.90;;;;;;5091930;28;20453;-60
2021/12/19 11:21:55;;;;;;;16.63;3.83;;;8.20;99.90;;;;;;5091643;28;20105;-60
2021/12/19 11:24:23;;;;;;;16.83;3.88;;;8.30;99.90;;;;;;5091338;28;20509;-60
2021/12/19 11:26:52;;;;;;;22.60;4.57;;;8.30;99.90;;;;;;5091618;28;20119;-59
2021/12/19 11:29:18;;;;;;;24.48;3.85;;;8.30;99.90;;;;;;5091601;28;20043;-60
2021/12/19 11:31:47;;;;;;;14.15;3.92;;;8.30;99.90;;;;;;5091694;28;20044;-60
2021/12/19 11:34:19;;;;;;;11.48;3.17;;;8.30;99.90;;;;;;5094304;28;20047;-60
2021/12/19 11:36:56;;;;;;;15.95;3.28;;;8.30;99.90;;;;;;5095189;28;20036;-60
2021/12/19 11:39:33;;;;;;;17.98;3.65;;;8.30;99.90;;;;;;5095226;28;20065;-60
2021/12/19 11:42:04;;;;;;;17.60;3.30;;;8.40;99.90;;;;;;5095467;28;20044;-60
2021/12/19 11:44:47;;;;;;;23.25;3.63;;;8.40;99.90;;;;;;5095360;28;20047;-60
2021/12/19 11:47:16;;;;;;;23.25;4.45;;;8.40;99.90;;;;;;5095054;28;20544;-60
2021/12/19 11:49:42;;;;;;;22.73;4.15;;;8.40;99.90;;;;;;5095080;28;20115;-60
2021/12/19 11:52:29;;;;;;;22.38;3.55;;;8.40;99.90;;;;;;5095123;28;20119;-60
2021/12/19 11:55:13;;;;;;;28.05;4.78;;;8.40;99.90;;;;;;5095182;28;20044;-60
2021/12/19 11:57:44;;;;;;;24.15;4.40;;;8.40;99.90;;;;;;5095113;28;20040;-60
2021/12/19 12:00:24;;;;;;;19.40;4.03;;;8.50;99.90;;;;;;5094807;28;20042;-60
2021/12/19 12:03:13;;;;;;;19.50;4.25;;;8.50;99.90;;;;;;5094664;28;20079;-60
2021/12/19 12:05:43;;;;;;;25.25;4.03;;;8.50;99.90;;;;;;5094624;28;20040;-60
2021/12/19 12:08:09;;;;;;;20.67;3.67;;;8.50;99.90;;;;;;5095083;28;20054;-60
2021/12/19 12:10:47;;;;;;;16.00;3.55;;;8.50;99.90;;;;;;5093410;28;20083;-60
2021/12/19 12:13:37;;;;;;;24.40;3.60;;;8.50;99.90;;;;;;5094574;28;20124;-60
2021/12/19 12:18:56;;;;;;;20.60;3.35;;;8.50;99.90;;;;;;5094640;28;20043;-61
2021/12/19 12:21:29;;;;;;;18.85;4.28;;;8.60;99.90;;;;;;5093410;28;20047;-60
2021/12/19 12:23:59;;;;;;;17.38;4.18;;;8.50;99.90;;;;;;5094604;28;20048;-60
2021/12/19 12:26:37;;;;;;;12.30;3.42;;;8.50;99.90;;;;;;5094592;28;20040;-60
2021/12/19 12:29:04;;;;;;;16.40;3.20;;;8.50;99.90;;;;;;5094545;28;20048;-60
2021/12/19 12:31:30;;;;;;;16.73;4.22;;;8.50;99.90;;;;;;5094245;28;20040;-60
2021/12/19 12:33:56;;;;;;;18.33;3.83;;;8.50;99.90;;;;;;5094443;28;20055;-60
2021/12/19 12:36:22;;;;;;;17.40;5.35;;;8.50;99.90;;;;;;5094687;28;20048;-60
2021/12/19 12:38:51;;;;;;;15.55;3.35;;;8.50;99.90;;;;;;5094547;28;20036;-60
2021/12/19 12:41:51;;;;;;;21.98;3.35;;;8.50;99.90;;;;;;5094362;28;20079;-60
2021/12/19 12:44:22;;;;;;;18.80;3.45;;;8.50;99.90;;;;;;5093535;28;20119;-60
2021/12/19 12:46:49;;;;;;;19.55;3.65;;;8.50;99.90;;;;;;5094359;28;20036;-60
2021/12/19 12:49:24;;;;;;;16.25;3.42;;;8.50;99.90;;;;;;5094180;28;20047;-60
2021/12/19 12:51:56;;;;;;;14.63;3.08;;;8.50;99.90;;;;;;5092692;28;20377;-60
2021/12/19 12:54:27;;;;;;;22.70;3.95;;;8.50;99.90;;;;;;5093783;28;20552;-60
2021/12/19 12:56:55;;;;;;;29.27;4.88;;;8.50;99.90;;;;;;5093795;28;20405;-61
2021/12/19 12:59:23;;;;;;;15.98;3.13;;;8.50;99.90;;;;;;5093767;28;20493;-60
2021/12/19 13:01:55;;;;;;;21.65;3.83;;;8.50;99.90;;;;;;5093555;28;20040;-60
2021/12/19 13:04:24;;;;;;;15.70;3.05;;;8.50;99.90;;;;;;5094055;28;20039;-60
2021/12/19 13:06:56;;;;;;;15.88;3.03;;;8.40;99.90;;;;;;5093704;28;20033;-61
2021/12/19 13:09:28;;;;;;;20.40;3.42;;;8.40;99.90;;;;;;5093596;28;20044;-60
2021/12/19 13:12:07;;;;;;;21.27;4.28;;;8.50;99.90;;;;;;5093683;28;20047;-60
2021/12/19 13:14:36;;;;;;;15.90;3.55;;;8.40;99.90;;;;;;5093594;28;20076;-60
2021/12/19 13:17:08;;;;;;;17.25;3.30;;;8.40;99.90;;;;;;5093445;28;20131;-60
2021/12/19 13:19:44;;;;;;;20.02;3.03;;;8.40;99.90;;;;;;5093473;28;20122;-60
2021/12/19 13:22:39;;;;;;;18.77;3.67;;;8.40;99.90;;;;;;5093461;28;20433;-60
2021/12/19 13:25:11;;;;;;;20.80;3.17;;;8.40;99.90;;;;;;5093451;28;20047;-60
2021/12/19 13:27:40;;;;;;;26.45;4.50;;;8.40;99.90;;;;;;5093268;28;20067;-60
2021/12/19 13:30:10;;;;;;;;;;;8.40;99.90;;;;;;5093612;28;20097;-60
2021/12/19 13:32:51;;;;;;;21.57;3.27;;;8.40;99.90;;;;;;5092103;28;19923;-60
2021/12/19 13:35:33;;;;;;;19.60;4.60;;;8.40;99.90;;;;;;5091824;28;20044;-60
2021/12/19 13:38:20;;;;;;;17.00;3.22;;;8.50;99.90;;;;;;5093167;28;20461;-60
2021/12/19 13:40:55;;;;;;;25.30;4.97;;;8.50;99.90;;;;;;5093169;28;20040;-60
2021/12/19 13:43:23;;;;;;;25.55;4.05;;;8.50;99.90;;;;;;5093070;28;20077;-60
2021/12/19 13:45:50;;;;;;;24.58;3.55;;;8.50;99.90;;;;;;5092927;28;20032;-60
2021/12/19 13:48:32;;;;;;;18.85;3.38;;;8.50;99.90;;;;;;5092676;28;20123;-60
2021/12/19 13:51:18;;;;;;;18.02;4.10;;;8.50;99.90;;;;;;5092841;28;20083;-60
2021/12/19 13:53:46;;;;;;;34.25;4.10;;;8.50;99.90;;;;;;5070297;28;20524;-60
2021/12/19 13:56:16;;;;;;;14.83;4.17;;;8.50;99.90;;;;;;5069557;28;20577;-60
2021/12/19 13:58:47;;;;;;;29.90;5.55;;;8.50;99.90;;;;;;5070231;28;20499;-60
2021/12/19 14:01:16;;;;;;;22.70;4.07;;;8.50;99.90;;;;;;5070165;28;20115;-60
2021/12/19 14:03:49;;;;;;;16.27;2.70;;;8.40;99.90;;;;;;5070219;28;20048;-59
2021/12/19 14:06:23;;;;;;;20.45;3.60;;;8.40;99.90;;;;;;5070242;28;20047;-60
2021/12/19 14:08:54;;;;;;;18.35;4.13;;;8.30;99.90;;;;;;5070166;28;20036;-60
2021/12/19 14:11:22;;;;;;;13.48;2.28;;;8.30;99.90;;;;;;5070185;28;20044;-60